Time;durP1;ratioP1;P1;durP2;ratioP2;P2;SDS_P1;SDS_P2;PMS_P1;PMS_P2;Temp;Humidity;BMP_temperature;BMP_pressure;BME280_temperature;BME280_humidity;BME280_pressure;Samples;Min_cycle;Max_cycle;Signal;HPM_P1;HPM_P2
2022/10/20 00:01:26;;;;;;;3.80;3.27;;;12.10;99.90;;;;;;950789;146;27311;-78
2022/10/20 00:03:52;;;;;;;5.33;3.50;;;12.10;99.90;;;;;;952274;146;27399;-78
2022/10/20 00:06:21;;;;;;;3.67;3.37;;;12.10;99.90;;;;;;951151;146;27763;-78
2022/10/20 00:08:48;;;;;;;4.07;3.37;;;12.10;99.90;;;;;;951409;146;27295;-78
2022/10/20 00:11:15;;;;;;;3.43;3.10;;;12.10;99.90;;;;;;954357;146;27325;-78
2022/10/20 00:13:41;;;;;;;4.17;3.13;;;12.10;99.90;;;;;;951260;146;27308;-78
2022/10/20 00:16:08;;;;;;;4.53;3.23;;;12.00;99.90;;;;;;950401;146;27812;-78
2022/10/20 00:18:34;;;;;;;5.00;3.20;;;12.00;99.90;;;;;;949390;146;27449;-78
2022/10/20 00:21:01;;;;;;;4.30;3.47;;;12.00;99.90;;;;;;953677;146;27334;-78
2022/10/20 00:23:27;;;;;;;4.00;3.60;;;12.00;99.90;;;;;;952843;146;27382;-78
2022/10/20 00:26:03;;;;;;;6.63;3.70;;;12.00;99.90;;;;;;951132;146;27334;-78
2022/10/20 00:28:30;;;;;;;5.00;3.40;;;11.90;99.90;;;;;;950259;146;27367;-78
2022/10/20 00:30:56;;;;;;;4.87;3.30;;;11.90;99.90;;;;;;951404;146;27380;-79
2022/10/20 00:33:23;;;;;;;4.70;3.63;;;11.90;99.90;;;;;;949953;146;27254;-78
2022/10/20 00:35:49;;;;;;;5.47;3.93;;;11.90;99.90;;;;;;950156;146;27341;-78
2022/10/20 00:38:16;;;;;;;4.10;3.70;;;11.90;99.90;;;;;;952673;146;27350;-78
2022/10/20 00:40:42;;;;;;;4.17;3.77;;;11.90;99.90;;;;;;951756;146;27376;-78
2022/10/20 00:43:11;;;;;;;5.80;4.17;;;11.80;99.90;;;;;;948638;146;27386;-78
2022/10/20 00:45:38;;;;;;;6.40;3.97;;;11.80;99.90;;;;;;953505;146;27335;-78
2022/10/20 00:48:05;;;;;;;4.23;3.83;;;11.80;99.90;;;;;;937035;149;27440;-78
2022/10/20 00:50:31;;;;;;;4.53;3.60;;;11.80;99.90;;;;;;936213;149;27439;-78
2022/10/20 00:52:58;;;;;;;4.30;3.90;;;11.80;99.90;;;;;;936286;149;27351;-78
2022/10/20 00:55:24;;;;;;;4.03;3.63;;;11.80;99.90;;;;;;952215;146;27446;-78
2022/10/20 00:57:51;;;;;;;6.37;3.70;;;11.80;99.90;;;;;;947598;149;27328;-78
2022/10/20 01:00:18;;;;;;;5.20;4.03;;;11.80;99.90;;;;;;952263;146;27717;-78
2022/10/20 01:02:44;;;;;;;6.40;4.00;;;11.80;99.90;;;;;;938027;149;27297;-78
2022/10/20 01:05:11;;;;;;;5.63;4.00;;;11.80;99.90;;;;;;951530;146;27390;-78
2022/10/20 01:07:37;;;;;;;4.40;3.90;;;11.80;99.90;;;;;;952970;146;27473;-78
2022/10/20 01:10:04;;;;;;;5.63;4.70;;;11.80;99.90;;;;;;954181;146;27441;-78
2022/10/20 01:12:33;;;;;;;6.93;3.80;;;11.80;99.90;;;;;;953157;146;27345;-78
2022/10/20 01:15:06;;;;;;;7.77;4.13;;;11.80;99.90;;;;;;952433;146;27320;-78
2022/10/20 01:17:39;;;;;;;4.83;3.80;;;11.80;99.90;;;;;;952065;146;27439;-78
2022/10/20 01:20:27;;;;;;;4.10;3.70;;;11.80;99.90;;;;;;952023;146;27398;-77
2022/10/20 01:23:31;;;;;;;3.87;3.40;;;11.80;99.90;;;;;;952494;146;27492;-78
2022/10/20 01:26:09;;;;;;;6.17;3.97;;;11.80;99.90;;;;;;953009;146;27417;-78
2022/10/20 01:28:42;;;;;;;4.27;3.60;;;11.80;99.90;;;;;;949784;146;27394;-78
2022/10/20 01:31:33;;;;;;;5.10;3.80;;;11.80;99.90;;;;;;951990;146;27305;-78
2022/10/20 01:34:05;;;;;;;4.63;4.20;;;11.80;99.90;;;;;;952405;146;27475;-78
2022/10/20 01:36:38;;;;;;;5.10;4.27;;;11.70;99.90;;;;;;952746;146;27326;-78
2022/10/20 01:39:04;;;;;;;4.10;3.73;;;11.70;99.90;;;;;;947572;146;27344;-77
2022/10/20 01:41:33;;;;;;;5.17;4.00;;;11.70;99.90;;;;;;950254;146;27379;-77
2022/10/20 01:44:00;;;;;;;5.13;4.50;;;11.70;99.90;;;;;;953586;146;27353;-78
2022/10/20 01:46:27;;;;;;;5.00;3.93;;;11.70;99.90;;;;;;951320;146;27465;-77
2022/10/20 01:48:53;;;;;;;4.40;4.00;;;11.70;99.90;;;;;;953001;146;27319;-77
2022/10/20 01:51:20;;;;;;;4.53;4.13;;;11.70;99.90;;;;;;951743;146;27379;-77
2022/10/20 01:53:46;;;;;;;4.67;3.83;;;11.70;99.90;;;;;;951587;146;27379;-77
2022/10/20 01:56:16;;;;;;;5.20;3.90;;;11.70;99.90;;;;;;951091;146;27281;-77
2022/10/20 01:58:42;;;;;;;4.73;4.33;;;11.70;99.90;;;;;;951433;146;27420;-77
2022/10/20 02:01:12;;;;;;;5.17;4.17;;;11.70;99.90;;;;;;951724;146;27340;-77
2022/10/20 02:03:53;;;;;;;6.77;4.37;;;11.80;99.90;;;;;;934745;149;27440;-77
2022/10/20 02:06:31;;;;;;;6.13;4.30;;;11.80;99.90;;;;;;939503;149;27336;-78
2022/10/20 02:09:01;;;;;;;3.80;3.47;;;11.80;99.90;;;;;;940349;150;27266;-78
2022/10/20 02:11:48;;;;;;;5.67;4.10;;;11.80;99.90;;;;;;938004;151;27268;-77
2022/10/20 02:14:15;;;;;;;4.13;3.70;;;11.70;99.90;;;;;;938146;151;27343;-78
2022/10/20 02:16:54;;;;;;;6.57;4.23;;;11.80;99.90;;;;;;937159;151;28051;-77
2022/10/20 02:19:20;;;;;;;5.23;3.70;;;11.70;99.90;;;;;;937801;151;27360;-77
2022/10/20 02:21:50;;;;;;;4.83;3.67;;;11.70;99.90;;;;;;938664;151;27438;-76
2022/10/20 02:24:14;;;;;;;5.03;4.03;;;11.70;99.90;;;;;;935967;150;27341;-77
2022/10/20 02:26:40;;;;;;;4.10;3.70;;;11.70;99.90;;;;;;939455;150;27487;-77
2022/10/20 02:29:16;;;;;;;4.77;4.37;;;11.60;99.90;;;;;;941342;151;27339;-77
2022/10/20 02:31:42;;;;;;;6.53;4.20;;;11.60;99.90;;;;;;939382;148;27291;-78
2022/10/20 02:34:09;;;;;;;4.47;4.03;;;11.60;99.90;;;;;;938517;151;27328;-78
2022/10/20 02:36:35;;;;;;;4.80;4.30;;;11.60;99.90;;;;;;938125;151;27353;-78
2022/10/20 02:39:02;;;;;;;4.03;3.63;;;11.60;99.90;;;;;;937929;150;27431;-78
2022/10/20 02:41:29;;;;;;;4.70;4.30;;;11.60;99.90;;;;;;939040;151;27333;-78
2022/10/20 02:43:55;;;;;;;5.20;3.90;;;11.60;99.90;;;;;;937197;151;27857;-78
2022/10/20 02:46:22;;;;;;;3.97;3.57;;;11.60;99.90;;;;;;938037;148;27396;-78
2022/10/20 02:48:48;;;;;;;5.17;4.27;;;11.60;99.90;;;;;;931146;150;27358;-78
2022/10/20 02:51:16;;;;;;;6.27;4.13;;;11.60;99.90;;;;;;931848;151;27273;-78
2022/10/20 02:53:42;;;;;;;4.30;4.00;;;11.60;99.90;;;;;;929782;151;27478;-78
2022/10/20 02:56:08;;;;;;;4.67;4.10;;;11.50;99.90;;;;;;931790;151;27351;-78
2022/10/20 02:58:35;;;;;;;4.23;3.83;;;11.60;99.90;;;;;;929335;149;27259;-78
2022/10/20 03:01:01;;;;;;;5.93;4.07;;;11.50;99.90;;;;;;929096;150;27345;-78
2022/10/20 03:03:28;;;;;;;5.73;4.13;;;11.50;99.90;;;;;;931283;150;27345;-78
2022/10/20 03:05:54;;;;;;;5.43;4.10;;;11.50;99.90;;;;;;931036;149;27428;-78
2022/10/20 03:08:21;;;;;;;5.00;3.97;;;11.50;99.90;;;;;;930685;151;27355;-78
2022/10/20 03:10:47;;;;;;;5.17;4.70;;;11.50;99.90;;;;;;930014;149;27338;-78
2022/10/20 03:13:14;;;;;;;5.30;4.23;;;11.40;99.90;;;;;;929900;151;27324;-78
2022/10/20 03:15:41;;;;;;;5.33;4.23;;;11.40;99.90;;;;;;930289;151;27296;-78
2022/10/20 03:18:07;;;;;;;5.00;4.10;;;11.40;99.90;;;;;;929835;151;27441;-78
2022/10/20 03:20:34;;;;;;;4.33;4.00;;;11.40;99.90;;;;;;930906;149;27461;-78
2022/10/20 03:23:00;;;;;;;6.60;4.37;;;11.40;99.90;;;;;;931383;151;27300;-78
2022/10/20 03:25:27;;;;;;;4.77;4.37;;;11.30;99.90;;;;;;931525;151;27287;-78
2022/10/20 03:27:54;;;;;;;6.07;4.50;;;11.30;99.90;;;;;;931057;151;27320;-78
2022/10/20 03:30:20;;;;;;;4.77;4.37;;;11.20;99.90;;;;;;930783;151;27333;-78
2022/10/20 03:32:47;;;;;;;5.93;4.47;;;11.20;99.90;;;;;;930998;149;27380;-78
2022/10/20 03:35:13;;;;;;;6.30;5.20;;;11.20;99.90;;;;;;929456;151;27398;-78
2022/10/20 03:37:40;;;;;;;6.10;5.13;;;11.20;99.90;;;;;;930385;151;27394;-78
2022/10/20 03:40:07;;;;;;;9.43;5.40;;;11.20;99.90;;;;;;930114;151;27295;-78
2022/10/20 03:42:33;;;;;;;5.40;4.90;;;11.20;99.90;;;;;;930180;151;27850;-78
2022/10/20 03:45:00;;;;;;;6.03;4.63;;;11.10;99.90;;;;;;931710;150;27405;-78
2022/10/20 03:47:26;;;;;;;7.17;5.13;;;11.10;99.90;;;;;;930810;150;27441;-78
2022/10/20 03:49:53;;;;;;;5.60;5.13;;;11.10;99.90;;;;;;943738;148;27418;-78
2022/10/20 03:52:19;;;;;;;5.37;4.87;;;11.10;99.90;;;;;;941683;147;27409;-78
2022/10/20 03:54:46;;;;;;;7.43;4.70;;;11.00;99.90;;;;;;943582;150;27359;-78
2022/10/20 03:57:13;;;;;;;5.07;4.50;;;11.00;99.90;;;;;;943453;147;27363;-78
2022/10/20 03:59:39;;;;;;;5.20;4.70;;;11.00;99.90;;;;;;943233;150;27331;-78
2022/10/20 04:02:06;;;;;;;6.20;5.53;;;11.00;99.90;;;;;;942878;150;27331;-78
2022/10/20 04:04:32;;;;;;;8.23;5.03;;;11.00;99.90;;;;;;943550;148;27340;-78
2022/10/20 04:06:59;;;;;;;8.50;5.67;;;11.00;99.90;;;;;;942835;148;27332;-77
2022/10/20 04:09:26;;;;;;;5.23;4.67;;;10.90;99.90;;;;;;943596;150;27539;-77
2022/10/20 04:11:52;;;;;;;5.53;4.90;;;10.90;99.90;;;;;;943554;150;27371;-77
2022/10/20 04:14:19;;;;;;;4.73;4.33;;;10.80;99.90;;;;;;943305;150;27293;-78
2022/10/20 04:16:45;;;;;;;4.93;4.47;;;10.80;99.90;;;;;;942798;148;27425;-78
2022/10/20 04:19:12;;;;;;;8.03;4.40;;;10.80;99.90;;;;;;944158;150;27323;-77
2022/10/20 04:21:39;;;;;;;4.77;4.27;;;10.80;99.90;;;;;;942858;150;27428;-77
2022/10/20 04:24:06;;;;;;;6.87;4.50;;;10.70;99.90;;;;;;942709;148;27366;-78
2022/10/20 04:26:32;;;;;;;4.97;4.50;;;10.70;99.90;;;;;;944155;147;27383;-78
2022/10/20 04:28:58;;;;;;;5.50;5.00;;;10.70;99.90;;;;;;945639;150;27338;-78
2022/10/20 04:31:25;;;;;;;6.73;5.13;;;10.70;99.90;;;;;;943161;147;27329;-79
2022/10/20 04:33:51;;;;;;;7.77;4.90;;;10.70;99.90;;;;;;943873;150;27444;-79
2022/10/20 04:36:18;;;;;;;5.37;4.50;;;10.60;99.90;;;;;;944017;148;27430;-78
2022/10/20 04:38:45;;;;;;;5.60;4.97;;;10.60;99.90;;;;;;943719;150;28444;-78
2022/10/20 04:41:11;;;;;;;7.17;5.33;;;10.60;99.90;;;;;;942065;150;27465;-78
2022/10/20 04:43:38;;;;;;;6.23;5.73;;;10.60;99.90;;;;;;941179;148;27327;-78
2022/10/20 04:46:04;;;;;;;5.37;4.87;;;10.60;99.90;;;;;;943469;150;27417;-77
2022/10/20 04:48:31;;;;;;;8.73;5.10;;;10.50;99.90;;;;;;943287;150;27403;-77
2022/10/20 04:51:00;;;;;;;5.90;5.30;;;10.60;99.90;;;;;;944577;147;27347;-78
2022/10/20 04:53:27;;;;;;;5.57;5.10;;;10.60;99.90;;;;;;936649;149;27393;-78
2022/10/20 04:55:54;;;;;;;6.03;5.40;;;10.60;99.90;;;;;;951291;146;27401;-78
2022/10/20 04:58:20;;;;;;;5.87;5.23;;;10.60;99.90;;;;;;952724;146;27437;-78
2022/10/20 05:00:47;;;;;;;7.30;5.97;;;10.60;99.90;;;;;;951237;146;27452;-78
2022/10/20 05:03:13;;;;;;;6.07;5.47;;;10.60;99.90;;;;;;954408;146;27481;-78
2022/10/20 05:05:40;;;;;;;8.27;6.37;;;10.60;99.90;;;;;;953733;146;27299;-78
2022/10/20 05:08:07;;;;;;;7.60;5.83;;;10.60;99.90;;;;;;953364;146;27698;-78
2022/10/20 05:10:33;;;;;;;6.33;5.70;;;10.60;99.90;;;;;;953793;146;27801;-77
2022/10/20 05:13:00;;;;;;;6.90;5.63;;;10.60;99.90;;;;;;952599;146;27439;-78
2022/10/20 05:15:26;;;;;;;6.57;5.83;;;10.60;99.90;;;;;;952722;146;27372;-78
2022/10/20 05:17:53;;;;;;;7.90;5.87;;;10.60;99.90;;;;;;952956;146;27335;-78
2022/10/20 05:20:20;;;;;;;7.40;5.70;;;10.60;99.90;;;;;;952995;146;27334;-78
2022/10/20 05:22:46;;;;;;;6.67;6.07;;;10.60;99.90;;;;;;951853;146;27386;-77
2022/10/20 05:25:13;;;;;;;6.53;5.67;;;10.60;99.90;;;;;;950954;146;27348;-77
2022/10/20 05:27:39;;;;;;;7.87;5.93;;;10.70;99.90;;;;;;953222;146;27811;-77
2022/10/20 05:30:06;;;;;;;6.60;5.90;;;10.70;99.90;;;;;;952918;146;27352;-77
2022/10/20 05:32:33;;;;;;;7.13;6.10;;;10.60;99.90;;;;;;952676;146;27406;-77
2022/10/20 05:34:59;;;;;;;7.47;6.30;;;10.60;99.90;;;;;;954094;146;27684;-77
2022/10/20 05:37:26;;;;;;;7.27;5.80;;;10.70;99.90;;;;;;952826;146;27402;-77
2022/10/20 05:39:52;;;;;;;6.47;5.77;;;10.60;99.90;;;;;;952812;146;27383;-77
2022/10/20 05:42:19;;;;;;;9.93;6.13;;;10.60;99.90;;;;;;951103;146;27393;-77
2022/10/20 05:44:46;;;;;;;7.13;6.10;;;10.60;99.90;;;;;;953643;146;27912;-77
2022/10/20 05:47:12;;;;;;;7.53;6.10;;;10.60;99.90;;;;;;953246;146;27445;-79
2022/10/20 05:49:39;;;;;;;6.70;5.97;;;10.60;99.90;;;;;;952946;146;27388;-78
2022/10/20 05:52:05;;;;;;;6.60;5.90;;;10.60;99.90;;;;;;953427;146;27398;-78
2022/10/20 05:54:32;;;;;;;8.87;5.87;;;10.60;99.90;;;;;;952567;146;27338;-78
2022/10/20 05:56:59;;;;;;;8.07;6.37;;;10.60;99.90;;;;;;934605;149;27593;-78
2022/10/20 05:59:25;;;;;;;8.60;6.20;;;10.60;99.90;;;;;;951392;146;27398;-78
2022/10/20 06:01:52;;;;;;;7.87;5.73;;;10.60;99.90;;;;;;949820;146;27430;-77
2022/10/20 06:04:18;;;;;;;6.73;6.13;;;10.60;99.90;;;;;;949943;146;27339;-79
2022/10/20 06:06:47;;;;;;;8.20;5.90;;;10.70;99.90;;;;;;950593;146;27472;-79
2022/10/20 06:09:11;;;;;;;7.67;6.50;;;10.70;99.90;;;;;;950956;146;27360;-79
2022/10/20 06:11:38;;;;;;;7.43;5.93;;;10.70;99.90;;;;;;950854;146;27288;-79
2022/10/20 06:14:05;;;;;;;10.63;6.40;;;10.70;99.90;;;;;;951160;146;27339;-79
2022/10/20 06:16:31;;;;;;;6.40;5.80;;;10.80;99.90;;;;;;952348;146;27410;-79
2022/10/20 06:18:58;;;;;;;7.27;6.37;;;10.80;99.90;;;;;;951310;146;27280;-79
2022/10/20 06:21:24;;;;;;;7.30;5.70;;;10.90;99.90;;;;;;953380;146;27376;-78
2022/10/20 06:23:51;;;;;;;6.67;6.07;;;10.90;99.90;;;;;;949789;146;27368;-79
2022/10/20 06:26:18;;;;;;;6.80;6.10;;;11.00;99.90;;;;;;949660;146;27444;-79
2022/10/20 06:28:44;;;;;;;7.50;6.90;;;11.10;99.90;;;;;;950513;146;27301;-79
2022/10/20 06:31:20;;;;;;;6.67;6.07;;;11.20;99.90;;;;;;950825;146;27984;-79
2022/10/20 06:33:46;;;;;;;8.33;6.87;;;11.30;99.90;;;;;;951797;146;27388;-79
2022/10/20 06:36:13;;;;;;;9.30;6.57;;;11.50;99.90;;;;;;953175;146;27316;-79
2022/10/20 06:38:39;;;;;;;6.27;5.67;;;11.70;99.90;;;;;;951140;146;27325;-79
2022/10/20 06:41:06;;;;;;;6.97;6.17;;;11.90;99.90;;;;;;951777;146;27425;-79
2022/10/20 06:43:33;;;;;;;5.70;5.10;;;12.10;99.90;;;;;;950709;146;27351;-79
2022/10/20 06:45:59;;;;;;;7.20;5.77;;;12.30;99.90;;;;;;951920;146;27376;-79
2022/10/20 06:48:26;;;;;;;6.23;5.63;;;12.50;99.90;;;;;;950116;146;27367;-79
2022/10/20 06:50:58;;;;;;;6.00;5.40;;;12.60;99.90;;;;;;936401;149;27390;-79
2022/10/20 06:53:24;;;;;;;6.83;6.00;;;12.80;99.90;;;;;;918186;150;27428;-79
2022/10/20 06:56:00;;;;;;;6.30;5.37;;;13.00;99.90;;;;;;933918;148;27273;-79
2022/10/20 06:58:26;;;;;;;6.97;6.27;;;13.10;99.90;;;;;;935281;148;27512;-79
2022/10/20 07:00:59;;;;;;;6.33;5.67;;;13.30;99.90;;;;;;932475;148;27335;-78
2022/10/20 07:03:25;;;;;;;7.17;6.13;;;13.40;99.90;;;;;;934187;148;27266;-78
2022/10/20 07:05:52;;;;;;;6.13;5.40;;;13.40;99.90;;;;;;933502;148;27375;-78
2022/10/20 07:08:18;;;;;;;6.17;5.57;;;13.50;99.90;;;;;;934377;148;27430;-78
2022/10/20 07:10:45;;;;;;;9.73;6.50;;;13.60;99.90;;;;;;934574;148;27476;-78
2022/10/20 07:13:12;;;;;;;6.43;5.83;;;13.60;99.90;;;;;;934053;149;27415;-78
2022/10/20 07:15:38;;;;;;;6.67;6.00;;;13.70;99.90;;;;;;932440;149;27294;-78
2022/10/20 07:18:05;;;;;;;11.27;6.03;;;13.70;99.90;;;;;;932532;149;27319;-78
2022/10/20 07:20:31;;;;;;;6.50;5.63;;;13.80;99.90;;;;;;932106;149;27438;-78
2022/10/20 07:22:58;;;;;;;7.73;6.47;;;13.80;99.90;;;;;;933663;149;27461;-78
2022/10/20 07:25:25;;;;;;;6.60;6.00;;;13.90;99.90;;;;;;932832;149;27978;-78
2022/10/20 07:27:51;;;;;;;6.83;6.20;;;13.90;99.90;;;;;;931039;149;27359;-78
2022/10/20 07:30:18;;;;;;;10.23;6.27;;;13.90;99.90;;;;;;931714;149;27321;-78
2022/10/20 07:32:44;;;;;;;6.47;5.87;;;14.00;99.70;;;;;;932753;149;27438;-78
2022/10/20 07:35:11;;;;;;;6.87;6.17;;;14.00;99.50;;;;;;930831;149;27390;-78
2022/10/20 07:37:37;;;;;;;8.88;6.03;;;14.00;99.50;;;;;;932866;149;28387;-79
2022/10/20 07:40:04;;;;;;;6.30;5.70;;;14.00;99.60;;;;;;932562;149;27326;-78
2022/10/20 07:42:31;;;;;;;6.65;6.03;;;14.10;99.60;;;;;;933298;149;27407;-78
2022/10/20 07:44:57;;;;;;;7.67;6.63;;;14.10;99.80;;;;;;932680;149;27353;-78
2022/10/20 07:47:25;;;;;;;7.57;6.50;;;14.20;99.00;;;;;;931842;149;27464;-78
2022/10/20 07:49:50;;;;;;;8.30;7.03;;;14.20;98.70;;;;;;931375;149;27360;-79
2022/10/20 07:52:17;;;;;;;7.07;6.37;;;14.20;98.70;;;;;;921867;149;27359;-79
2022/10/20 07:54:44;;;;;;;6.93;6.23;;;14.30;98.60;;;;;;918637;154;27362;-79
2022/10/20 07:57:10;;;;;;;7.85;6.15;;;14.30;98.50;;;;;;916682;154;27418;-78
2022/10/20 07:59:37;;;;;;;7.77;6.17;;;14.30;98.60;;;;;;935270;149;27398;-78
2022/10/20 08:02:03;;;;;;;6.62;6.03;;;14.30;98.60;;;;;;936018;149;27475;-78
2022/10/20 08:04:30;;;;;;;7.80;6.47;;;14.40;98.60;;;;;;934557;149;27416;-78
2022/10/20 08:06:57;;;;;;;7.23;6.53;;;14.50;98.90;;;;;;936487;148;27395;-79
2022/10/20 08:09:23;;;;;;;7.00;6.40;;;14.50;98.90;;;;;;929665;154;27279;-79
2022/10/20 08:11:50;;;;;;;7.10;6.50;;;14.60;98.80;;;;;;934560;149;27728;-78
2022/10/20 08:14:16;;;;;;;6.83;6.23;;;14.60;98.80;;;;;;936085;148;27463;-79
2022/10/20 08:16:43;;;;;;;7.42;6.72;;;14.80;98.60;;;;;;921005;154;28633;-79
2022/10/20 08:19:10;;;;;;;8.23;6.78;;;14.80;98.20;;;;;;918879;154;27907;-79
2022/10/20 08:21:36;;;;;;;7.20;6.60;;;14.90;98.00;;;;;;934447;149;27355;-79
2022/10/20 08:24:03;;;;;;;7.55;6.80;;;15.00;98.00;;;;;;935567;148;27404;-78
2022/10/20 08:26:29;;;;;;;7.60;6.80;;;15.10;97.60;;;;;;934392;151;27417;-78
2022/10/20 08:28:56;;;;;;;7.10;6.50;;;15.10;97.40;;;;;;937417;149;27816;-78
2022/10/20 08:31:22;;;;;;;8.43;6.22;;;15.20;97.40;;;;;;933950;148;27447;-78
2022/10/20 08:33:49;;;;;;;8.30;6.93;;;15.30;96.90;;;;;;935201;151;27307;-78
2022/10/20 08:36:16;;;;;;;8.90;7.00;;;15.30;96.70;;;;;;935869;148;27322;-78
2022/10/20 08:38:43;;;;;;;7.83;7.00;;;15.40;96.30;;;;;;937857;151;27335;-79
2022/10/20 08:41:21;;;;;;;8.23;7.42;;;15.40;95.90;;;;;;935621;151;27490;-78
2022/10/20 08:43:47;;;;;;;9.43;8.43;;;15.40;95.70;;;;;;936524;151;27326;-78
2022/10/20 08:46:14;;;;;;;8.20;7.10;;;15.40;95.50;;;;;;932888;151;27427;-78
2022/10/20 08:48:40;;;;;;;8.80;7.85;;;15.40;95.40;;;;;;934304;151;27283;-77
2022/10/20 08:51:07;;;;;;;10.45;8.03;;;15.40;95.40;;;;;;935151;151;27419;-77
2022/10/20 08:53:33;;;;;;;7.87;7.07;;;15.50;95.20;;;;;;934406;151;27472;-78
2022/10/20 08:56:00;;;;;;;9.88;7.67;;;15.50;95.20;;;;;;934451;151;27369;-77
2022/10/20 08:58:27;;;;;;;8.98;8.08;;;15.50;95.10;;;;;;935799;149;27456;-77
2022/10/20 09:00:56;;;;;;;9.78;7.25;;;15.50;95.30;;;;;;935603;149;27432;-78
2022/10/20 09:03:23;;;;;;;8.50;7.70;;;15.50;95.50;;;;;;934210;151;27413;-77
2022/10/20 09:05:52;;;;;;;13.60;9.18;;;15.50;95.60;;;;;;933947;151;27363;-79
2022/10/20 09:08:19;;;;;;;12.03;7.85;;;15.50;95.60;;;;;;935830;151;27327;-78
2022/10/20 09:10:48;;;;;;;8.33;7.53;;;15.60;95.90;;;;;;935951;151;27338;-78
2022/10/20 09:13:14;;;;;;;8.88;7.97;;;15.60;96.00;;;;;;935274;149;27373;-78
2022/10/20 09:15:41;;;;;;;7.92;7.12;;;15.70;96.00;;;;;;934125;149;27458;-78
2022/10/20 09:18:08;;;;;;;10.23;7.55;;;15.80;95.90;;;;;;933695;148;27362;-78
2022/10/20 09:20:52;;;;;;;10.68;7.75;;;15.90;95.70;;;;;;919607;154;27304;-78
2022/10/20 09:23:19;;;;;;;9.30;8.05;;;15.90;95.50;;;;;;918203;152;27336;-78
2022/10/20 09:25:46;;;;;;;9.38;7.42;;;16.00;95.20;;;;;;933975;148;27326;-78
2022/10/20 09:28:21;;;;;;;10.10;7.67;;;16.10;95.20;;;;;;934952;149;27465;-78
2022/10/20 09:30:48;;;;;;;9.23;8.03;;;16.20;94.90;;;;;;924866;152;27408;-78
2022/10/20 09:33:21;;;;;;;8.95;8.05;;;16.20;94.80;;;;;;935176;149;27821;-78
2022/10/20 09:35:47;;;;;;;8.93;7.85;;;16.30;94.50;;;;;;936811;151;27308;-78
2022/10/20 09:38:17;;;;;;;9.15;8.25;;;16.40;94.50;;;;;;933769;148;27336;-78
2022/10/20 09:40:46;;;;;;;8.25;7.40;;;16.50;94.40;;;;;;935227;149;27329;-78
2022/10/20 09:43:16;;;;;;;9.08;7.87;;;16.50;94.40;;;;;;935700;149;27365;-78
2022/10/20 09:45:51;;;;;;;9.33;7.97;;;16.60;94.40;;;;;;935851;149;27504;-78
2022/10/20 09:48:27;;;;;;;8.10;7.25;;;16.70;94.10;;;;;;936535;151;27310;-78
2022/10/20 09:50:57;;;;;;;8.90;7.92;;;16.80;93.60;;;;;;935049;149;27437;-78
2022/10/20 09:53:23;;;;;;;10.63;7.70;;;16.90;93.50;;;;;;935640;148;27402;-78
2022/10/20 09:55:49;;;;;;;8.98;8.00;;;17.00;93.50;;;;;;927501;151;27349;-78
2022/10/20 09:58:28;;;;;;;8.40;7.60;;;17.00;93.30;;;;;;933421;151;27428;-78
2022/10/20 10:00:54;;;;;;;7.30;6.62;;;17.10;92.80;;;;;;935642;151;27343;-78
2022/10/20 10:03:21;;;;;;;7.80;7.10;;;17.20;92.60;;;;;;933669;151;27687;-79
2022/10/20 10:05:50;;;;;;;7.65;6.95;;;17.30;92.50;;;;;;935453;148;27264;-78
2022/10/20 10:08:17;;;;;;;8.30;7.50;;;17.40;92.40;;;;;;935488;148;27495;-78
2022/10/20 10:10:44;;;;;;;9.65;8.00;;;17.40;92.30;;;;;;917819;154;27396;-78
2022/10/20 10:13:23;;;;;;;8.58;7.75;;;17.50;92.20;;;;;;933787;151;27417;-78
2022/10/20 10:15:49;;;;;;;8.33;7.47;;;17.50;91.90;;;;;;934695;148;27429;-78
2022/10/20 10:18:15;;;;;;;9.28;7.75;;;17.60;91.70;;;;;;932269;151;27343;-78
2022/10/20 10:20:42;;;;;;;8.48;7.67;;;17.60;91.50;;;;;;933489;151;27382;-78
2022/10/20 10:23:21;;;;;;;10.35;8.38;;;17.70;91.50;;;;;;935217;151;27362;-78
2022/10/20 10:25:47;;;;;;;9.75;8.18;;;17.70;91.50;;;;;;936064;148;27313;-78
2022/10/20 10:28:29;;;;;;;9.80;8.80;;;17.80;91.30;;;;;;936129;151;27317;-78
2022/10/20 10:31:07;;;;;;;9.30;8.35;;;17.80;91.20;;;;;;935526;149;27447;-78
2022/10/20 10:33:33;;;;;;;11.55;9.70;;;17.90;91.50;;;;;;933460;151;27378;-78
2022/10/20 10:36:03;;;;;;;9.55;8.68;;;17.90;91.20;;;;;;935027;149;27319;-78
2022/10/20 10:38:29;;;;;;;11.45;9.13;;;18.00;90.90;;;;;;934290;151;27357;-78
2022/10/20 10:40:58;;;;;;;10.82;9.35;;;18.00;90.60;;;;;;935981;151;27450;-78
2022/10/20 10:43:30;;;;;;;9.58;8.48;;;18.10;90.40;;;;;;934967;151;27370;-78
2022/10/20 10:46:00;;;;;;;12.60;8.60;;;18.10;89.80;;;;;;936710;149;27428;-78
2022/10/20 10:48:29;;;;;;;9.58;8.68;;;18.10;89.10;;;;;;935534;151;27358;-78
2022/10/20 10:51:08;;;;;;;10.75;8.38;;;18.10;88.90;;;;;;935787;149;27460;-78
2022/10/20 10:53:53;;;;;;;10.00;8.15;;;18.10;88.90;;;;;;934516;148;27511;-78
2022/10/20 10:56:31;;;;;;;9.20;8.35;;;18.10;89.10;;;;;;933690;148;27347;-79
2022/10/20 10:58:58;;;;;;;10.53;9.35;;;18.00;88.70;;;;;;934968;148;27821;-79
2022/10/20 11:01:39;;;;;;;11.12;8.28;;;18.00;88.40;;;;;;933984;148;27394;-80
2022/10/20 11:04:15;;;;;;;11.35;9.38;;;18.00;88.60;;;;;;934438;148;27386;-78
2022/10/20 11:07:00;;;;;;;9.80;8.20;;;18.00;88.80;;;;;;932817;148;27859;-79
2022/10/20 11:09:54;;;;;;;9.15;8.00;;;18.00;88.80;;;;;;933636;148;27465;-78
2022/10/20 11:12:54;;;;;;;9.23;8.20;;;18.00;88.70;;;;;;935613;148;27363;-78
2022/10/20 11:15:39;;;;;;;10.10;8.00;;;18.10;88.30;;;;;;934383;148;27342;-79
2022/10/20 11:18:26;;;;;;;9.15;8.23;;;18.00;87.10;;;;;;933390;148;27456;-80
2022/10/20 11:20:59;;;;;;;9.78;7.85;;;18.00;86.90;;;;;;933803;148;27416;-79
2022/10/20 11:23:59;;;;;;;8.83;7.92;;;17.80;86.60;;;;;;935491;148;27263;-79
2022/10/20 11:26:26;;;;;;;9.05;8.10;;;17.70;86.20;;;;;;936810;148;27249;-77
2022/10/20 11:28:52;;;;;;;8.60;7.72;;;17.60;85.80;;;;;;934941;148;27390;-78
2022/10/20 11:31:34;;;;;;;12.88;8.30;;;17.50;85.80;;;;;;934943;148;27471;-78
2022/10/20 11:34:04;;;;;;;10.08;8.15;;;17.40;86.00;;;;;;934802;148;27630;-77
2022/10/20 11:36:30;;;;;;;9.55;8.55;;;17.30;86.50;;;;;;937356;148;27406;-77
2022/10/20 11:38:56;;;;;;;10.15;8.80;;;17.20;86.90;;;;;;934417;148;27300;-77
2022/10/20 11:41:26;;;;;;;9.90;8.10;;;17.20;87.50;;;;;;935382;148;27391;-78
2022/10/20 11:44:04;;;;;;;10.00;8.48;;;17.20;88.20;;;;;;935543;148;27461;-78
2022/10/20 11:46:36;;;;;;;9.03;8.13;;;17.20;89.00;;;;;;936063;148;27322;-78
2022/10/20 11:49:03;;;;;;;8.95;7.85;;;17.10;89.90;;;;;;933041;148;27429;-78
2022/10/20 11:51:30;;;;;;;8.98;7.58;;;17.20;90.20;;;;;;935917;148;27457;-77
2022/10/20 11:54:18;;;;;;;9.73;8.10;;;17.30;90.40;;;;;;934117;148;27394;-77
2022/10/20 11:57:03;;;;;;;9.30;7.42;;;17.30;90.50;;;;;;933838;149;27381;-78
2022/10/20 11:59:39;;;;;;;8.43;7.67;;;17.40;90.70;;;;;;935035;149;27458;-78
2022/10/20 12:02:23;;;;;;;8.83;7.50;;;17.50;90.60;;;;;;935037;149;27414;-78
2022/10/20 12:05:07;;;;;;;7.90;7.12;;;17.50;90.40;;;;;;936009;149;27393;-78
2022/10/20 12:07:59;;;;;;;10.75;8.05;;;17.60;90.40;;;;;;936195;149;27412;-78
2022/10/20 12:10:31;;;;;;;9.23;7.83;;;17.70;90.50;;;;;;922592;151;27281;-78
2022/10/20 12:13:25;;;;;;;10.80;8.05;;;17.70;90.50;;;;;;936147;149;27374;-77
2022/10/20 12:15:52;;;;;;;7.35;6.65;;;17.80;90.50;;;;;;935407;149;27384;-78
2022/10/20 12:18:18;;;;;;;9.48;7.37;;;17.90;90.50;;;;;;937372;149;27333;-78
2022/10/20 12:20:48;;;;;;;7.92;7.03;;;18.00;90.40;;;;;;935424;148;27337;-78
2022/10/20 12:23:43;;;;;;;7.53;6.78;;;18.10;90.20;;;;;;935048;151;27325;-78
2022/10/20 12:26:37;;;;;;;9.68;8.00;;;18.20;90.00;;;;;;935150;149;27369;-78
2022/10/20 12:29:31;;;;;;;9.33;7.92;;;18.20;89.60;;;;;;920872;154;27421;-78
2022/10/20 12:32:28;;;;;;;7.85;7.10;;;18.30;89.20;;;;;;918803;154;27422;-78
2022/10/20 12:34:55;;;;;;;9.68;8.60;;;18.30;89.20;;;;;;934731;149;27409;-78
2022/10/20 12:37:24;;;;;;;9.15;8.15;;;18.30;88.70;;;;;;918854;154;27344;-79
2022/10/20 12:39:51;;;;;;;9.33;8.53;;;18.20;88.20;;;;;;936334;151;27444;-78
2022/10/20 12:42:23;;;;;;;10.18;8.58;;;18.20;88.10;;;;;;937329;151;28458;-78
2022/10/20 12:44:50;;;;;;;9.20;8.30;;;18.10;88.10;;;;;;934667;148;27334;-78
2022/10/20 12:47:29;;;;;;;9.10;8.20;;;17.90;88.60;;;;;;937535;149;27657;-78
2022/10/20 12:49:55;;;;;;;9.93;8.65;;;17.80;89.20;;;;;;934087;151;27426;-78
2022/10/20 12:52:22;;;;;;;8.85;7.95;;;17.60;89.80;;;;;;935810;151;27390;-78
2022/10/20 12:54:48;;;;;;;12.13;9.50;;;17.40;90.20;;;;;;934869;148;27415;-78
2022/10/20 12:57:30;;;;;;;11.18;9.23;;;17.30;90.80;;;;;;933046;149;27361;-78